Terminal Aerodrome Forecast
Issued by NWS

Home | Current Version | Previous Version | Text Only | Print | Product List | Glossary On
Versions: 1 2 3 4 5 6 7 8 9 10 11 12 13 14 15 16 17 18 19 20
000
FTUS43 KDTX 261507 AAB
TAFDET
TAF AMD
KDET 261507Z 2615/2712 11008KT 6SM -SHRA BR BKN011 OVC060
      TEMPO 2615/2616 4SM -SHRA BR OVC008
     FM261600 13010KT 3SM -RA BR SCT012 OVC028
      TEMPO 2616/2618 SCT025 OVC080
     FM262200 16010KT 5SM -SHRA BKN015 OVC025
     FM270100 16008KT 3SM -SHRA BR OVC012
     FM270500 21008KT 5SM BR BKN010 OVC030=

USA.gov is the U.S. government's official web portal to all federal, state and local government web resources and services.